KCLM/CLM METAR and TAF weather

Enter ICAO airport designator
Station Type Date Time Source
KCLM METAR 2024/06/14 00:53 UTC NOAA

KCLM 140053Z AUTO 30013G20KT 10SM CLR 16/06 A3007 RMK AO2 SLP183 T01560056


Station Type Date Time Source
KCLM Decoded METAR 2024/06/14 00:53 UTC NOAA

PORT ANGELES FAIRCHILD INTERNATIONAL , WA, United States (KCLM) 48-07N 123-30W 85M
Jun 13, 2024 - 08:53 PM EDT / 2024.06.14 0053 UTC
Wind: from the WNW (300 degrees) at 15 MPH (13 KT) gusting to 23 MPH (20 KT):0
Visibility: 10 mile(s):0
Sky conditions: clear
Temperature: 60.1 F (15.6 C)
Dew Point: 42.1 F (5.6 C)
Relative Humidity: 51%
Pressure (altimeter): 30.07 in. Hg (1018 hPa)
ob: KCLM 140053Z AUTO 30013G20KT 10SM CLR 16/06 A3007 RMK AO2 SLP183 T01560056
cycle: 1

Station Type Date Time Source
KCLM TAF 2024/06/13 18:33 UTC NOAA